Flight Track Log - Related Links

Times and Time Zones

All times are in EDT time to prevent confusion due to time zone crossing. See the CTL17 flight status page for this flight to view local times or setup timezone preferences in your user account.

Time Position Orientation Groundspeed Altitude Reporting Facility
EDT Latitude Longitude Course Direction KTS MPH feet Rate Location/Type
Thu 03:54:55 PM 42.6600 -83.4461 268° West 128 147 1,400  Level Cleveland Center
Thu 03:55:26 PM 42.6594 -83.4717 268° West 124 143 1,900 923 Climbing Cleveland Center
Thu 03:56:26 PM 42.6883 -83.4842 342° North 143 165 2,800 900 Climbing Cleveland Center
Thu 03:58:00 PM 42.7475 -83.5253 14° North  Level Estimated
Thu 04:05:00 PM 43.0104 -83.4881 321° Northwest  Level FlightAware Approximate
Thu 04:06:00 PM 43.0434 -83.5245 321° Northwest  Level FlightAware Approximate
Thu 04:07:00 PM 43.0764 -83.5610 321° Northwest  Level FlightAware Approximate
Thu 04:08:00 PM 43.1094 -83.5975 321° Northwest  Level FlightAware Approximate
Thu 04:09:00 PM 43.1423 -83.6341 321° Northwest  Level FlightAware Approximate
Thu 04:10:00 PM 43.1753 -83.6706 321° Northwest  Level FlightAware Approximate
Thu 04:11:00 PM 43.2082 -83.7073 321° Northwest  Level FlightAware Approximate
Thu 04:12:00 PM 43.2403 -83.7454 318° Northwest  Level FlightAware Approximate
Thu 04:13:00 PM 43.2720 -83.7841 318° Northwest  Level FlightAware Approximate
Thu 04:14:00 PM 43.3037 -83.8229 318° Northwest  Level FlightAware Approximate
Thu 04:15:00 PM 43.3353 -83.8616 318° Northwest  Level FlightAware Approximate
Thu 04:16:00 PM 43.3670 -83.9004 324° Northwest  Level FlightAware Approximate
Thu 04:17:00 PM 43.4014 -83.9346 324° Northwest  Level FlightAware Approximate
Thu 04:18:00 PM 43.4357 -83.9689 324° Northwest  Level FlightAware Approximate
Thu 04:19:00 PM 43.4700 -84.0033 324° Northwest  Level FlightAware Approximate
Thu 04:20:00 PM 43.5030 -84.0394 305° West  Level FlightAware Approximate
Thu 04:21:00 PM 43.5167 -84.0667 305° West  Level FlightAware Approximate
Thu 04:22:00 PM 43.5329 -84.0796 305° West  Level Estimated
Thu 04:23:00 PM 43.5329 -84.0796 305° West  Level Estimated
Thu 04:24:00 PM 43.5329 -84.0796 305° West  Level Estimated
Thu 04:25:00 PM 43.5329 -84.0796 305° West  Level Estimated
Thu 04:26:00 PM 43.5329 -84.0796 305° West  Level Estimated

Login

Don't have an account? Register now (free) for customized features, flight alerts, and more!